sensor_id;sensor_type;location;lat;lon;timestamp;P1;durP1;ratioP1;P2;durP2;ratioP2
50417;SDS011;36346;48.280;14.292;2024-03-06T00:00:03;31.43;;;31.06;;
50417;SDS011;36346;48.280;14.292;2024-03-06T00:02:31;32.00;;;31.67;;
50417;SDS011;36346;48.280;14.292;2024-03-06T00:04:59;31.67;;;31.17;;
50417;SDS011;36346;48.280;14.292;2024-03-06T00:07:28;32.56;;;32.16;;
50417;SDS011;36346;48.280;14.292;2024-03-06T00:09:56;33.91;;;33.18;;
50417;SDS011;36346;48.280;14.292;2024-03-06T00:12:24;33.22;;;32.69;;
50417;SDS011;36346;48.280;14.292;2024-03-06T00:14:53;32.69;;;32.00;;
50417;SDS011;36346;48.280;14.292;2024-03-06T00:17:21;33.26;;;32.59;;
50417;SDS011;36346;48.280;14.292;2024-03-06T00:19:49;31.92;;;31.28;;
50417;SDS011;36346;48.280;14.292;2024-03-06T00:22:17;31.68;;;31.13;;
50417;SDS011;36346;48.280;14.292;2024-03-06T00:24:50;30.64;;;30.15;;
50417;SDS011;36346;48.280;14.292;2024-03-06T00:27:19;30.23;;;29.67;;
50417;SDS011;36346;48.280;14.292;2024-03-06T00:29:47;30.62;;;30.11;;
50417;SDS011;36346;48.280;14.292;2024-03-06T00:32:15;30.45;;;29.88;;
50417;SDS011;36346;48.280;14.292;2024-03-06T00:34:43;29.60;;;29.02;;
50417;SDS011;36346;48.280;14.292;2024-03-06T00:37:11;29.70;;;29.09;;
50417;SDS011;36346;48.280;14.292;2024-03-06T00:39:39;28.43;;;27.92;;
50417;SDS011;36346;48.280;14.292;2024-03-06T00:42:07;28.59;;;28.01;;
50417;SDS011;36346;48.280;14.292;2024-03-06T00:44:36;27.81;;;27.33;;
50417;SDS011;36346;48.280;14.292;2024-03-06T00:47:05;26.61;;;26.38;;
50417;SDS011;36346;48.280;14.292;2024-03-06T00:49:33;26.65;;;26.28;;
50417;SDS011;36346;48.280;14.292;2024-03-06T00:52:01;25.19;;;24.68;;
50417;SDS011;36346;48.280;14.292;2024-03-06T00:54:30;23.31;;;22.90;;
50417;SDS011;36346;48.280;14.292;2024-03-06T00:56:58;22.37;;;21.94;;
50417;SDS011;36346;48.280;14.292;2024-03-06T00:59:27;22.14;;;21.64;;
50417;SDS011;36346;48.280;14.292;2024-03-06T01:01:55;21.48;;;21.14;;
50417;SDS011;36346;48.280;14.292;2024-03-06T01:04:24;22.06;;;21.50;;
50417;SDS011;36346;48.280;14.292;2024-03-06T01:06:52;21.95;;;21.44;;
50417;SDS011;36346;48.280;14.292;2024-03-06T01:09:20;21.30;;;20.76;;
50417;SDS011;36346;48.280;14.292;2024-03-06T01:11:48;21.43;;;21.04;;
50417;SDS011;36346;48.280;14.292;2024-03-06T01:14:18;21.66;;;21.22;;
50417;SDS011;36346;48.280;14.292;2024-03-06T01:16:46;21.23;;;20.92;;
50417;SDS011;36346;48.280;14.292;2024-03-06T01:19:14;19.88;;;19.59;;
50417;SDS011;36346;48.280;14.292;2024-03-06T01:21:42;20.94;;;20.67;;
50417;SDS011;36346;48.280;14.292;2024-03-06T01:24:10;20.28;;;20.07;;
50417;SDS011;36346;48.280;14.292;2024-03-06T01:26:38;19.94;;;19.66;;
50417;SDS011;36346;48.280;14.292;2024-03-06T01:29:08;20.19;;;19.73;;
50417;SDS011;36346;48.280;14.292;2024-03-06T01:31:36;20.18;;;19.69;;
50417;SDS011;36346;48.280;14.292;2024-03-06T01:34:04;20.10;;;19.81;;
50417;SDS011;36346;48.280;14.292;2024-03-06T01:36:32;20.20;;;19.85;;
50417;SDS011;36346;48.280;14.292;2024-03-06T01:39:01;20.51;;;20.10;;
50417;SDS011;36346;48.280;14.292;2024-03-06T01:41:30;20.09;;;19.71;;
50417;SDS011;36346;48.280;14.292;2024-03-06T01:43:58;19.49;;;19.20;;
50417;SDS011;36346;48.280;14.292;2024-03-06T01:46:26;19.76;;;19.42;;
50417;SDS011;36346;48.280;14.292;2024-03-06T01:48:54;19.38;;;19.02;;
50417;SDS011;36346;48.280;14.292;2024-03-06T01:51:23;20.24;;;19.82;;
50417;SDS011;36346;48.280;14.292;2024-03-06T01:53:51;19.89;;;19.63;;
50417;SDS011;36346;48.280;14.292;2024-03-06T01:56:19;19.84;;;19.58;;
50417;SDS011;36346;48.280;14.292;2024-03-06T01:58:48;21.03;;;20.62;;
50417;SDS011;36346;48.280;14.292;2024-03-06T02:01:16;19.83;;;19.51;;
50417;SDS011;36346;48.280;14.292;2024-03-06T02:03:45;19.57;;;19.22;;
50417;SDS011;36346;48.280;14.292;2024-03-06T02:06:14;19.57;;;19.26;;
50417;SDS011;36346;48.280;14.292;2024-03-06T02:08:42;19.80;;;19.44;;
50417;SDS011;36346;48.280;14.292;2024-03-06T02:11:10;20.21;;;19.79;;
50417;SDS011;36346;48.280;14.292;2024-03-06T02:13:39;19.93;;;19.56;;
50417;SDS011;36346;48.280;14.292;2024-03-06T02:16:09;19.31;;;19.01;;
50417;SDS011;36346;48.280;14.292;2024-03-06T02:18:49;19.71;;;19.28;;
50417;SDS011;36346;48.280;14.292;2024-03-06T02:21:23;19.62;;;19.24;;
50417;SDS011;36346;48.280;14.292;2024-03-06T02:23:52;19.04;;;18.60;;
50417;SDS011;36346;48.280;14.292;2024-03-06T02:26:20;19.54;;;19.30;;
50417;SDS011;36346;48.280;14.292;2024-03-06T02:28:53;19.25;;;18.98;;
50417;SDS011;36346;48.280;14.292;2024-03-06T02:31:22;20.03;;;19.70;;
50417;SDS011;36346;48.280;14.292;2024-03-06T02:33:50;19.43;;;19.17;;
50417;SDS011;36346;48.280;14.292;2024-03-06T02:36:19;18.77;;;18.52;;
50417;SDS011;36346;48.280;14.292;2024-03-06T02:38:47;18.84;;;18.60;;
50417;SDS011;36346;48.280;14.292;2024-03-06T02:41:15;20.03;;;19.54;;
50417;SDS011;36346;48.280;14.292;2024-03-06T02:43:44;19.48;;;19.20;;
50417;SDS011;36346;48.280;14.292;2024-03-06T02:46:12;19.64;;;19.33;;
50417;SDS011;36346;48.280;14.292;2024-03-06T02:48:40;19.70;;;19.38;;
50417;SDS011;36346;48.280;14.292;2024-03-06T02:51:07;20.77;;;20.42;;
50417;SDS011;36346;48.280;14.292;2024-03-06T02:53:35;20.05;;;19.78;;
50417;SDS011;36346;48.280;14.292;2024-03-06T02:56:04;20.14;;;19.79;;
50417;SDS011;36346;48.280;14.292;2024-03-06T02:58:34;18.73;;;18.60;;
50417;SDS011;36346;48.280;14.292;2024-03-06T03:01:03;17.77;;;17.67;;
50417;SDS011;36346;48.280;14.292;2024-03-06T03:03:31;18.10;;;17.90;;
50417;SDS011;36346;48.280;14.292;2024-03-06T03:06:00;18.05;;;17.81;;
50417;SDS011;36346;48.280;14.292;2024-03-06T03:08:29;17.37;;;17.10;;
50417;SDS011;36346;48.280;14.292;2024-03-06T03:10:57;17.38;;;17.20;;
50417;SDS011;36346;48.280;14.292;2024-03-06T03:13:25;17.33;;;16.98;;
50417;SDS011;36346;48.280;14.292;2024-03-06T03:15:53;17.06;;;16.76;;
50417;SDS011;36346;48.280;14.292;2024-03-06T03:18:21;16.94;;;16.68;;
50417;SDS011;36346;48.280;14.292;2024-03-06T03:20:50;16.85;;;16.68;;
50417;SDS011;36346;48.280;14.292;2024-03-06T03:23:18;17.14;;;16.89;;
50417;SDS011;36346;48.280;14.292;2024-03-06T03:25:50;17.10;;;17.00;;
50417;SDS011;36346;48.280;14.292;2024-03-06T03:28:18;17.62;;;17.42;;
50417;SDS011;36346;48.280;14.292;2024-03-06T03:30:46;18.10;;;17.96;;
50417;SDS011;36346;48.280;14.292;2024-03-06T03:33:14;17.67;;;17.47;;
50417;SDS011;36346;48.280;14.292;2024-03-06T03:35:42;17.85;;;17.72;;
50417;SDS011;36346;48.280;14.292;2024-03-06T03:38:10;18.12;;;17.88;;
50417;SDS011;36346;48.280;14.292;2024-03-06T03:40:39;17.35;;;17.18;;
50417;SDS011;36346;48.280;14.292;2024-03-06T03:43:07;17.82;;;17.47;;
50417;SDS011;36346;48.280;14.292;2024-03-06T03:45:36;18.64;;;18.30;;
50417;SDS011;36346;48.280;14.292;2024-03-06T03:48:04;18.65;;;18.30;;
50417;SDS011;36346;48.280;14.292;2024-03-06T03:50:33;18.81;;;18.35;;
50417;SDS011;36346;48.280;14.292;2024-03-06T03:53:01;18.71;;;18.38;;
50417;SDS011;36346;48.280;14.292;2024-03-06T03:55:29;18.65;;;18.37;;
50417;SDS011;36346;48.280;14.292;2024-03-06T03:57:57;18.41;;;18.02;;
50417;SDS011;36346;48.280;14.292;2024-03-06T04:00:25;17.61;;;17.37;;
50417;SDS011;36346;48.280;14.292;2024-03-06T04:02:53;18.17;;;17.75;;
50417;SDS011;36346;48.280;14.292;2024-03-06T04:05:22;17.75;;;17.45;;
50417;SDS011;36346;48.280;14.292;2024-03-06T04:07:51;18.22;;;18.05;;
50417;SDS011;36346;48.280;14.292;2024-03-06T04:10:19;17.95;;;17.64;;
50417;SDS011;36346;48.280;14.292;2024-03-06T04:12:47;20.26;;;19.95;;
50417;SDS011;36346;48.280;14.292;2024-03-06T04:15:15;18.84;;;18.49;;
50417;SDS011;36346;48.280;14.292;2024-03-06T04:17:43;16.89;;;16.61;;
50417;SDS011;36346;48.280;14.292;2024-03-06T04:20:12;16.92;;;16.76;;
50417;SDS011;36346;48.280;14.292;2024-03-06T04:22:40;16.85;;;16.61;;
50417;SDS011;36346;48.280;14.292;2024-03-06T04:25:08;15.76;;;15.51;;
50417;SDS011;36346;48.280;14.292;2024-03-06T04:27:37;16.15;;;15.88;;
50417;SDS011;36346;48.280;14.292;2024-03-06T04:30:05;16.57;;;16.29;;
50417;SDS011;36346;48.280;14.292;2024-03-06T04:32:33;16.52;;;16.25;;
50417;SDS011;36346;48.280;14.292;2024-03-06T04:35:01;15.43;;;15.16;;
50417;SDS011;36346;48.280;14.292;2024-03-06T04:37:29;16.49;;;16.21;;
50417;SDS011;36346;48.280;14.292;2024-03-06T04:39:58;15.59;;;15.34;;
50417;SDS011;36346;48.280;14.292;2024-03-06T04:42:26;16.10;;;15.83;;
50417;SDS011;36346;48.280;14.292;2024-03-06T04:44:54;15.60;;;15.34;;
50417;SDS011;36346;48.280;14.292;2024-03-06T04:47:23;15.65;;;15.41;;
50417;SDS011;36346;48.280;14.292;2024-03-06T04:49:56;15.47;;;15.21;;
50417;SDS011;36346;48.280;14.292;2024-03-06T04:52:25;15.29;;;15.02;;
50417;SDS011;36346;48.280;14.292;2024-03-06T04:54:54;16.04;;;15.77;;
50417;SDS011;36346;48.280;14.292;2024-03-06T04:57:22;16.13;;;15.61;;
50417;SDS011;36346;48.280;14.292;2024-03-06T04:59:50;15.30;;;15.09;;
50417;SDS011;36346;48.280;14.292;2024-03-06T05:02:18;15.67;;;15.42;;
50417;SDS011;36346;48.280;14.292;2024-03-06T05:04:46;15.80;;;15.58;;
50417;SDS011;36346;48.280;14.292;2024-03-06T05:07:32;15.72;;;15.36;;
50417;SDS011;36346;48.280;14.292;2024-03-06T05:10:18;15.43;;;15.07;;
50417;SDS011;36346;48.280;14.292;2024-03-06T05:13:04;15.53;;;15.19;;
50417;SDS011;36346;48.280;14.292;2024-03-06T05:15:50;15.50;;;15.19;;
50417;SDS011;36346;48.280;14.292;2024-03-06T05:18:36;15.83;;;15.59;;
50417;SDS011;36346;48.280;14.292;2024-03-06T05:21:22;15.96;;;15.74;;
50417;SDS011;36346;48.280;14.292;2024-03-06T05:24:07;17.42;;;17.21;;
50417;SDS011;36346;48.280;14.292;2024-03-06T05:26:53;17.71;;;17.53;;
50417;SDS011;36346;48.280;14.292;2024-03-06T05:29:39;17.70;;;17.29;;
50417;SDS011;36346;48.280;14.292;2024-03-06T05:32:24;18.20;;;17.96;;
50417;SDS011;36346;48.280;14.292;2024-03-06T05:35:10;17.51;;;17.36;;
50417;SDS011;36346;48.280;14.292;2024-03-06T05:37:56;17.59;;;17.33;;
50417;SDS011;36346;48.280;14.292;2024-03-06T05:40:42;17.87;;;17.65;;
50417;SDS011;36346;48.280;14.292;2024-03-06T05:43:30;17.81;;;17.48;;
50417;SDS011;36346;48.280;14.292;2024-03-06T05:46:15;18.09;;;17.89;;
50417;SDS011;36346;48.280;14.292;2024-03-06T05:49:01;18.04;;;17.76;;
50417;SDS011;36346;48.280;14.292;2024-03-06T05:51:48;17.52;;;17.30;;
50417;SDS011;36346;48.280;14.292;2024-03-06T05:54:33;17.05;;;16.81;;
50417;SDS011;36346;48.280;14.292;2024-03-06T05:57:20;16.77;;;16.57;;
50417;SDS011;36346;48.280;14.292;2024-03-06T06:00:06;16.92;;;16.76;;
50417;SDS011;36346;48.280;14.292;2024-03-06T06:02:39;17.39;;;17.14;;
50417;SDS011;36346;48.280;14.292;2024-03-06T06:05:07;18.58;;;18.35;;
50417;SDS011;36346;48.280;14.292;2024-03-06T06:07:50;18.79;;;18.53;;
50417;SDS011;36346;48.280;14.292;2024-03-06T06:10:19;18.03;;;17.79;;
50417;SDS011;36346;48.280;14.292;2024-03-06T06:12:49;17.78;;;17.43;;
50417;SDS011;36346;48.280;14.292;2024-03-06T06:15:17;18.75;;;18.49;;
50417;SDS011;36346;48.280;14.292;2024-03-06T06:17:45;19.76;;;19.52;;
50417;SDS011;36346;48.280;14.292;2024-03-06T06:20:14;19.83;;;19.44;;
50417;SDS011;36346;48.280;14.292;2024-03-06T06:22:44;19.97;;;19.63;;
50417;SDS011;36346;48.280;14.292;2024-03-06T06:25:12;21.16;;;20.65;;
50417;SDS011;36346;48.280;14.292;2024-03-06T06:27:41;21.92;;;21.23;;
50417;SDS011;36346;48.280;14.292;2024-03-06T06:30:09;22.52;;;21.79;;
50417;SDS011;36346;48.280;14.292;2024-03-06T06:32:40;22.48;;;21.96;;
50417;SDS011;36346;48.280;14.292;2024-03-06T06:35:10;22.08;;;21.51;;
50417;SDS011;36346;48.280;14.292;2024-03-06T06:37:40;20.88;;;20.48;;
50417;SDS011;36346;48.280;14.292;2024-03-06T06:40:08;19.56;;;19.16;;
50417;SDS011;36346;48.280;14.292;2024-03-06T06:42:37;17.19;;;16.99;;
50417;SDS011;36346;48.280;14.292;2024-03-06T06:45:06;16.24;;;16.04;;
50417;SDS011;36346;48.280;14.292;2024-03-06T06:47:37;16.91;;;16.72;;
50417;SDS011;36346;48.280;14.292;2024-03-06T06:50:07;16.02;;;15.76;;
50417;SDS011;36346;48.280;14.292;2024-03-06T06:52:40;16.02;;;15.78;;
50417;SDS011;36346;48.280;14.292;2024-03-06T06:55:09;16.46;;;16.14;;
50417;SDS011;36346;48.280;14.292;2024-03-06T06:57:39;16.49;;;16.11;;
50417;SDS011;36346;48.280;14.292;2024-03-06T07:00:08;16.62;;;16.37;;
50417;SDS011;36346;48.280;14.292;2024-03-06T07:02:40;16.33;;;16.08;;
50417;SDS011;36346;48.280;14.292;2024-03-06T07:05:11;17.43;;;17.20;;
50417;SDS011;36346;48.280;14.292;2024-03-06T07:07:40;17.67;;;17.43;;
50417;SDS011;36346;48.280;14.292;2024-03-06T07:10:08;19.21;;;18.80;;
50417;SDS011;36346;48.280;14.292;2024-03-06T07:12:37;18.92;;;18.55;;
50417;SDS011;36346;48.280;14.292;2024-03-06T07:15:05;19.34;;;19.01;;
50417;SDS011;36346;48.280;14.292;2024-03-06T07:17:34;19.79;;;19.59;;
50417;SDS011;36346;48.280;14.292;2024-03-06T07:20:03;20.19;;;19.91;;
50417;SDS011;36346;48.280;14.292;2024-03-06T07:22:33;20.54;;;20.26;;
50417;SDS011;36346;48.280;14.292;2024-03-06T07:25:01;21.52;;;21.17;;
50417;SDS011;36346;48.280;14.292;2024-03-06T07:27:30;21.04;;;20.73;;
50417;SDS011;36346;48.280;14.292;2024-03-06T07:29:58;21.34;;;20.98;;
50417;SDS011;36346;48.280;14.292;2024-03-06T07:32:26;21.70;;;21.40;;
50417;SDS011;36346;48.280;14.292;2024-03-06T07:34:54;22.70;;;22.28;;
50417;SDS011;36346;48.280;14.292;2024-03-06T07:37:23;22.27;;;21.81;;
50417;SDS011;36346;48.280;14.292;2024-03-06T07:39:51;21.20;;;20.72;;
50417;SDS011;36346;48.280;14.292;2024-03-06T07:42:21;21.01;;;20.60;;
50417;SDS011;36346;48.280;14.292;2024-03-06T07:44:49;21.37;;;20.94;;
50417;SDS011;36346;48.280;14.292;2024-03-06T07:47:18;22.04;;;21.56;;
50417;SDS011;36346;48.280;14.292;2024-03-06T07:49:46;22.29;;;21.84;;
50417;SDS011;36346;48.280;14.292;2024-03-06T07:52:14;22.44;;;22.06;;
50417;SDS011;36346;48.280;14.292;2024-03-06T07:54:42;22.63;;;22.21;;
50417;SDS011;36346;48.280;14.292;2024-03-06T07:57:10;22.53;;;22.28;;
50417;SDS011;36346;48.280;14.292;2024-03-06T07:59:39;23.41;;;23.09;;
50417;SDS011;36346;48.280;14.292;2024-03-06T08:02:07;23.74;;;23.33;;
50417;SDS011;36346;48.280;14.292;2024-03-06T08:04:35;24.61;;;24.09;;
50417;SDS011;36346;48.280;14.292;2024-03-06T08:07:04;24.16;;;23.68;;
50417;SDS011;36346;48.280;14.292;2024-03-06T08:09:32;24.17;;;23.73;;
50417;SDS011;36346;48.280;14.292;2024-03-06T08:12:00;25.76;;;25.32;;
50417;SDS011;36346;48.280;14.292;2024-03-06T08:14:29;25.91;;;25.50;;
50417;SDS011;36346;48.280;14.292;2024-03-06T08:16:58;25.27;;;24.91;;
50417;SDS011;36346;48.280;14.292;2024-03-06T08:19:26;25.68;;;25.29;;
50417;SDS011;36346;48.280;14.292;2024-03-06T08:21:54;25.17;;;24.77;;
50417;SDS011;36346;48.280;14.292;2024-03-06T08:24:22;24.14;;;23.63;;
50417;SDS011;36346;48.280;14.292;2024-03-06T08:26:50;23.64;;;23.23;;
50417;SDS011;36346;48.280;14.292;2024-03-06T08:29:18;22.91;;;22.64;;
50417;SDS011;36346;48.280;14.292;2024-03-06T08:31:48;23.22;;;22.88;;
50417;SDS011;36346;48.280;14.292;2024-03-06T08:34:16;23.55;;;23.23;;
50417;SDS011;36346;48.280;14.292;2024-03-06T08:36:45;23.67;;;23.39;;
50417;SDS011;36346;48.280;14.292;2024-03-06T08:39:13;23.02;;;22.67;;
50417;SDS011;36346;48.280;14.292;2024-03-06T08:41:42;22.90;;;22.56;;
50417;SDS011;36346;48.280;14.292;2024-03-06T08:44:11;23.25;;;22.85;;
50417;SDS011;36346;48.280;14.292;2024-03-06T08:46:38;23.56;;;23.12;;
50417;SDS011;36346;48.280;14.292;2024-03-06T08:49:07;23.21;;;22.86;;
50417;SDS011;36346;48.280;14.292;2024-03-06T08:51:37;24.18;;;23.78;;
50417;SDS011;36346;48.280;14.292;2024-03-06T08:54:05;26.05;;;25.62;;
50417;SDS011;36346;48.280;14.292;2024-03-06T08:56:38;27.09;;;26.47;;
50417;SDS011;36346;48.280;14.292;2024-03-06T08:59:06;27.51;;;26.99;;
50417;SDS011;36346;48.280;14.292;2024-03-06T09:01:34;27.05;;;26.76;;
50417;SDS011;36346;48.280;14.292;2024-03-06T09:04:02;28.36;;;27.89;;
50417;SDS011;36346;48.280;14.292;2024-03-06T09:06:30;28.64;;;28.34;;
50417;SDS011;36346;48.280;14.292;2024-03-06T09:08:58;28.97;;;28.63;;
50417;SDS011;36346;48.280;14.292;2024-03-06T09:11:26;30.85;;;30.29;;
50417;SDS011;36346;48.280;14.292;2024-03-06T09:13:55;31.43;;;30.97;;
50417;SDS011;36346;48.280;14.292;2024-03-06T09:16:23;31.74;;;31.24;;
50417;SDS011;36346;48.280;14.292;2024-03-06T09:18:52;31.53;;;30.91;;
50417;SDS011;36346;48.280;14.292;2024-03-06T09:21:20;31.35;;;30.80;;
50417;SDS011;36346;48.280;14.292;2024-03-06T09:23:49;31.13;;;30.70;;
50417;SDS011;36346;48.280;14.292;2024-03-06T09:26:19;30.61;;;30.00;;
50417;SDS011;36346;48.280;14.292;2024-03-06T09:28:48;30.63;;;30.17;;
50417;SDS011;36346;48.280;14.292;2024-03-06T09:31:17;30.61;;;30.11;;
50417;SDS011;36346;48.280;14.292;2024-03-06T09:33:45;30.37;;;29.61;;
50417;SDS011;36346;48.280;14.292;2024-03-06T09:36:14;30.49;;;29.74;;
50417;SDS011;36346;48.280;14.292;2024-03-06T09:38:42;29.61;;;29.30;;
50417;SDS011;36346;48.280;14.292;2024-03-06T09:41:10;29.26;;;28.82;;
50417;SDS011;36346;48.280;14.292;2024-03-06T09:43:38;30.55;;;30.02;;
50417;SDS011;36346;48.280;14.292;2024-03-06T09:46:09;30.79;;;30.07;;
50417;SDS011;36346;48.280;14.292;2024-03-06T09:48:38;30.53;;;29.88;;
50417;SDS011;36346;48.280;14.292;2024-03-06T09:51:14;29.55;;;28.98;;
50417;SDS011;36346;48.280;14.292;2024-03-06T09:53:42;29.20;;;28.66;;
50417;SDS011;36346;48.280;14.292;2024-03-06T09:56:11;29.98;;;29.34;;
50417;SDS011;36346;48.280;14.292;2024-03-06T09:58:40;31.58;;;30.89;;
50417;SDS011;36346;48.280;14.292;2024-03-06T10:01:08;31.63;;;30.97;;
50417;SDS011;36346;48.280;14.292;2024-03-06T10:03:40;30.71;;;30.16;;
50417;SDS011;36346;48.280;14.292;2024-03-06T10:06:08;29.34;;;28.95;;
50417;SDS011;36346;48.280;14.292;2024-03-06T10:08:44;28.68;;;28.19;;
50417;SDS011;36346;48.280;14.292;2024-03-06T10:11:14;27.75;;;27.22;;
50417;SDS011;36346;48.280;14.292;2024-03-06T10:13:45;26.68;;;26.24;;
50417;SDS011;36346;48.280;14.292;2024-03-06T10:16:13;26.42;;;25.89;;
50417;SDS011;36346;48.280;14.292;2024-03-06T10:18:42;26.51;;;26.16;;
50417;SDS011;36346;48.280;14.292;2024-03-06T10:21:10;25.94;;;25.58;;
50417;SDS011;36346;48.280;14.292;2024-03-06T10:23:38;26.23;;;25.81;;
50417;SDS011;36346;48.280;14.292;2024-03-06T10:26:07;26.03;;;25.62;;
50417;SDS011;36346;48.280;14.292;2024-03-06T10:28:36;23.43;;;23.05;;
50417;SDS011;36346;48.280;14.292;2024-03-06T10:31:04;22.91;;;22.57;;
50417;SDS011;36346;48.280;14.292;2024-03-06T10:33:35;23.15;;;22.56;;
50417;SDS011;36346;48.280;14.292;2024-03-06T10:36:05;22.27;;;21.84;;
50417;SDS011;36346;48.280;14.292;2024-03-06T10:38:39;22.99;;;22.54;;
50417;SDS011;36346;48.280;14.292;2024-03-06T10:41:13;22.35;;;21.96;;
50417;SDS011;36346;48.280;14.292;2024-03-06T10:43:46;20.97;;;20.56;;
50417;SDS011;36346;48.280;14.292;2024-03-06T10:46:17;20.82;;;20.31;;
50417;SDS011;36346;48.280;14.292;2024-03-06T10:48:49;20.13;;;19.69;;
50417;SDS011;36346;48.280;14.292;2024-03-06T10:51:17;19.89;;;19.65;;
50417;SDS011;36346;48.280;14.292;2024-03-06T10:53:46;20.93;;;20.61;;
50417;SDS011;36346;48.280;14.292;2024-03-06T10:56:17;20.67;;;20.32;;
50417;SDS011;36346;48.280;14.292;2024-03-06T10:58:47;21.31;;;20.78;;
50417;SDS011;36346;48.280;14.292;2024-03-06T11:01:19;21.66;;;21.12;;
50417;SDS011;36346;48.280;14.292;2024-03-06T11:03:50;21.10;;;20.58;;
50417;SDS011;36346;48.280;14.292;2024-03-06T11:06:18;20.22;;;19.85;;
50417;SDS011;36346;48.280;14.292;2024-03-06T11:08:47;20.61;;;20.23;;
50417;SDS011;36346;48.280;14.292;2024-03-06T11:11:22;20.15;;;19.90;;
50417;SDS011;36346;48.280;14.292;2024-03-06T11:13:55;19.88;;;19.69;;
50417;SDS011;36346;48.280;14.292;2024-03-06T11:16:29;20.83;;;20.55;;
50417;SDS011;36346;48.280;14.292;2024-03-06T11:19:04;21.11;;;20.77;;
50417;SDS011;36346;48.280;14.292;2024-03-06T11:21:35;21.02;;;20.50;;
50417;SDS011;36346;48.280;14.292;2024-03-06T11:24:20;20.23;;;19.92;;
50417;SDS011;36346;48.280;14.292;2024-03-06T11:26:50;19.75;;;19.51;;
50417;SDS011;36346;48.280;14.292;2024-03-06T11:30:09;20.81;;;20.47;;
50417;SDS011;36346;48.280;14.292;2024-03-06T11:32:31;19.43;;;19.21;;
50417;SDS011;36346;48.280;14.292;2024-03-06T11:35:00;18.23;;;17.94;;
50417;SDS011;36346;48.280;14.292;2024-03-06T11:37:29;17.90;;;17.70;;
50417;SDS011;36346;48.280;14.292;2024-03-06T11:39:59;17.72;;;17.43;;
50417;SDS011;36346;48.280;14.292;2024-03-06T11:42:34;17.57;;;17.31;;
50417;SDS011;36346;48.280;14.292;2024-03-06T11:45:13;17.34;;;17.12;;
50417;SDS011;36346;48.280;14.292;2024-03-06T11:50:45;16.77;;;16.51;;
50417;SDS011;36346;48.280;14.292;2024-03-06T11:53:14;16.54;;;16.18;;
50417;SDS011;36346;48.280;14.292;2024-03-06T11:55:44;16.46;;;16.28;;
50417;SDS011;36346;48.280;14.292;2024-03-06T11:58:12;16.06;;;15.88;;
50417;SDS011;36346;48.280;14.292;2024-03-06T12:00:40;16.34;;;16.02;;
50417;SDS011;36346;48.280;14.292;2024-03-06T12:03:10;16.12;;;15.91;;
50417;SDS011;36346;48.280;14.292;2024-03-06T12:05:38;17.53;;;17.30;;
50417;SDS011;36346;48.280;14.292;2024-03-06T12:08:07;17.85;;;17.67;;
50417;SDS011;36346;48.280;14.292;2024-03-06T12:10:38;16.89;;;16.67;;
50417;SDS011;36346;48.280;14.292;2024-03-06T12:13:09;16.59;;;16.37;;
50417;SDS011;36346;48.280;14.292;2024-03-06T12:15:42;16.95;;;16.82;;
50417;SDS011;36346;48.280;14.292;2024-03-06T12:18:10;17.77;;;17.50;;
50417;SDS011;36346;48.280;14.292;2024-03-06T12:20:42;18.80;;;18.46;;
50417;SDS011;36346;48.280;14.292;2024-03-06T12:23:23;18.68;;;18.30;;
50417;SDS011;36346;48.280;14.292;2024-03-06T12:26:03;19.06;;;18.78;;
50417;SDS011;36346;48.280;14.292;2024-03-06T12:28:33;18.65;;;18.36;;
50417;SDS011;36346;48.280;14.292;2024-03-06T12:31:05;19.33;;;18.94;;
50417;SDS011;36346;48.280;14.292;2024-03-06T12:33:35;19.16;;;18.77;;
50417;SDS011;36346;48.280;14.292;2024-03-06T12:36:04;18.84;;;18.65;;
50417;SDS011;36346;48.280;14.292;2024-03-06T12:38:34;18.51;;;18.42;;
50417;SDS011;36346;48.280;14.292;2024-03-06T12:41:03;18.67;;;18.47;;
50417;SDS011;36346;48.280;14.292;2024-03-06T12:43:32;17.94;;;17.64;;
50417;SDS011;36346;48.280;14.292;2024-03-06T12:46:02;18.17;;;17.91;;
50417;SDS011;36346;48.280;14.292;2024-03-06T12:48:32;21.27;;;20.96;;
50417;SDS011;36346;48.280;14.292;2024-03-06T12:51:01;24.32;;;23.85;;
50417;SDS011;36346;48.280;14.292;2024-03-06T12:53:33;18.78;;;18.50;;
50417;SDS011;36346;48.280;14.292;2024-03-06T12:56:03;20.97;;;20.66;;
50417;SDS011;36346;48.280;14.292;2024-03-06T12:58:32;21.05;;;20.80;;
50417;SDS011;36346;48.280;14.292;2024-03-06T13:01:01;19.70;;;19.36;;
50417;SDS011;36346;48.280;14.292;2024-03-06T13:03:31;18.26;;;18.07;;
50417;SDS011;36346;48.280;14.292;2024-03-06T13:06:00;17.90;;;17.65;;
50417;SDS011;36346;48.280;14.292;2024-03-06T13:08:28;17.75;;;17.41;;
50417;SDS011;36346;48.280;14.292;2024-03-06T13:10:57;17.38;;;17.17;;
50417;SDS011;36346;48.280;14.292;2024-03-06T13:13:25;18.19;;;17.87;;
50417;SDS011;36346;48.280;14.292;2024-03-06T13:15:55;18.20;;;17.89;;
50417;SDS011;36346;48.280;14.292;2024-03-06T13:18:24;17.51;;;17.34;;
50417;SDS011;36346;48.280;14.292;2024-03-06T13:20:53;17.73;;;17.48;;
50417;SDS011;36346;48.280;14.292;2024-03-06T13:23:22;18.05;;;17.76;;
50417;SDS011;36346;48.280;14.292;2024-03-06T13:25:50;18.17;;;18.02;;
50417;SDS011;36346;48.280;14.292;2024-03-06T13:28:18;16.89;;;16.84;;
50417;SDS011;36346;48.280;14.292;2024-03-06T13:30:48;17.82;;;17.66;;
50417;SDS011;36346;48.280;14.292;2024-03-06T13:33:18;19.88;;;19.65;;
50417;SDS011;36346;48.280;14.292;2024-03-06T13:35:46;18.35;;;18.11;;
50417;SDS011;36346;48.280;14.292;2024-03-06T13:38:14;18.42;;;18.22;;
50417;SDS011;36346;48.280;14.292;2024-03-06T13:40:42;17.97;;;17.74;;
50417;SDS011;36346;48.280;14.292;2024-03-06T13:43:10;18.28;;;17.92;;
50417;SDS011;36346;48.280;14.292;2024-03-06T13:45:40;18.47;;;18.11;;
50417;SDS011;36346;48.280;14.292;2024-03-06T13:48:16;17.91;;;17.65;;
50417;SDS011;36346;48.280;14.292;2024-03-06T13:50:45;18.17;;;17.92;;
50417;SDS011;36346;48.280;14.292;2024-03-06T13:53:14;17.93;;;17.67;;
50417;SDS011;36346;48.280;14.292;2024-03-06T13:55:43;18.05;;;17.80;;
50417;SDS011;36346;48.280;14.292;2024-03-06T13:58:11;17.80;;;17.63;;
50417;SDS011;36346;48.280;14.292;2024-03-06T14:00:39;18.61;;;18.30;;
50417;SDS011;36346;48.280;14.292;2024-03-06T14:03:07;19.34;;;19.04;;
50417;SDS011;36346;48.280;14.292;2024-03-06T14:05:35;18.63;;;18.25;;
50417;SDS011;36346;48.280;14.292;2024-03-06T14:08:03;18.26;;;17.91;;
50417;SDS011;36346;48.280;14.292;2024-03-06T14:10:31;18.77;;;18.41;;
50417;SDS011;36346;48.280;14.292;2024-03-06T14:13:04;17.82;;;17.60;;
50417;SDS011;36346;48.280;14.292;2024-03-06T14:15:34;17.51;;;17.24;;
50417;SDS011;36346;48.280;14.292;2024-03-06T14:18:05;17.30;;;17.03;;
50417;SDS011;36346;48.280;14.292;2024-03-06T14:20:34;17.12;;;16.94;;
50417;SDS011;36346;48.280;14.292;2024-03-06T14:23:02;16.27;;;16.13;;
50417;SDS011;36346;48.280;14.292;2024-03-06T14:25:30;16.30;;;16.17;;
50417;SDS011;36346;48.280;14.292;2024-03-06T14:28:03;16.47;;;16.20;;